Latest Coastal Weather Observations for Point Perpendicular

IDN60701

Issued at 8:51 am EST Sunday 23 July 2017 (issued every 10 minutes, with the page automatically refreshed every 10 minutes)

About coastal observations | Map of coastal stations | Coastal observations for NSW | Marine services | Other Formats
Station Details ID: 068151 Name: POINT PERPENDICULAR AWS Lat: -35.09 Lon: 150.80 Height: 85.0 m
Data from the previous 72 hours. | See also: Recent months at Point Perpendicular
Date/Time
EST
Temp
°C
Wind Pressure Rain since
9am
mm
Weather Cloud Vis
km
Sea
Height
m
Swell
Dir  Spd
kts
Gust
kts
hPa Trend Height
m
Period
s
Dir
23/08:30am - NW 10 13 1015.1 - - - - - - - - -
23/08:00am - WNW 12 20 1015.2 - - - - - - - - -
23/07:30am - WNW 9 17 1014.8 - - - - - - - - -
23/07:00am - WNW 5 9 1015.1 - - - - - - - - -
23/06:30am 13.3 WNW 9 16 1014.8 - 0.0 - - - - - - -
23/06:00am 13.3 WNW 7 12 1014.9 - 0.0 - - - - - - -
23/05:30am 13.2 WNW 10 18 1014.6 - 0.0 - - - - - - -
23/05:00am 12.6 WNW 11 19 1014.3 - 0.0 - - - - - - -
23/04:30am 12.7 WNW 10 16 1014.2 - 0.0 - - - - - - -
23/04:00am 12.7 WNW 11 22 1014.3 - 0.0 - - - - - - -
23/03:30am 11.7 WNW 8 15 1014.5 - 0.0 - - - - - - -
23/03:00am 11.5 WNW 10 18 1015.0 - 0.0 - - - - - - -
23/02:30am 11.5 WNW 11 19 1014.9 - 0.0 - - - - - - -
23/02:00am 11.6 WNW 9 16 1014.9 - 0.0 - - - - - - -
23/01:30am 11.4 WNW 9 14 1014.9 - 0.0 - - - - - - -
23/01:00am 12.0 WNW 7 11 1015.1 - 0.0 - - - - - - -
23/12:30am 11.5 WNW 10 14 1015.4 - 0.0 - - - - - - -
23/12:00am 11.5 WNW 11 19 1015.7 - 0.0 - - - - - - -
 
Date/Time
EST
Temp
°C
Wind Pressure Rain since
9am
mm
Weather Cloud Vis
km
Sea
Height
m
Swell
Dir  Spd
kts
Gust
kts
hPa Trend Height
m
Period
s
Dir
22/11:30pm 11.7 WNW 8 12 1016.0 - 0.0 - - - - - - -
22/11:00pm 11.9 NW 9 12 1016.3 - 0.0 - - - - - - -
22/10:30pm 11.5 NW 9 13 1016.7 - 0.0 - - - - - - -
22/10:00pm 11.7 NW 9 13 1016.4 - 0.0 - - - - - - -
22/09:30pm 11.8 NW 10 15 1016.6 - 0.0 - - - - - - -
22/09:00pm 12.2 WNW 10 16 1016.8 - 0.0 - - - - - - -
22/08:30pm 12.1 NW 12 17 1017.1 - 0.0 - - - - - - -
22/08:00pm 12.5 NW 9 13 1017.2 - 0.0 - - - - - - -
22/07:30pm 13.0 NW 8 14 1017.2 - 0.0 - - - - - - -
22/07:00pm 13.8 NW 7 11 1017.5 - 0.0 - - - - - - -
22/06:30pm 14.2 NW 12 16 1017.3 - 0.0 - - - - - - -
22/06:00pm 14.5 WNW 7 16 1017.4 - 0.0 - - - - - - -
22/05:30pm 15.2 WNW 6 10 1017.2 - 0.0 - - - - - - -
22/05:00pm 15.6 WNW 6 10 1017.3 - 0.0 - - - - - - -
22/04:30pm 16.2 WNW 8 14 1017.3 - 0.0 - - - - - - -
22/04:00pm 16.9 WNW 9 15 1017.2 - 0.0 - - - - - - -
22/03:30pm 17.2 WNW 8 13 1017.0 - 0.0 - - - - - - -
22/03:00pm 17.5 WNW 7 14 1017.4 - 0.0 - - - - - - -
22/02:30pm 17.6 WNW 7 13 1017.7 - 0.0 - - - - - - -
22/02:00pm 17.5 WNW 9 16 1018.0 - 0.0 - - - - - - -
22/01:30pm 17.0 WNW 8 15 1018.3 - 0.0 - - - - - - -
22/01:00pm 16.5 WNW 7 17 1018.6 - 0.0 - - - - - - -
22/12:30pm 15.5 NW 11 16 1019.3 - 0.0 - - - - - - -
22/12:00pm 14.7 NW 14 19 1019.7 - 0.0 - - - - - - -
22/11:30am 14.2 NW 11 18 1020.1 - 0.0 - - - - - - -
22/11:00am 13.1 NW 14 20 1020.7 - 0.0 - - - - - - -
22/10:30am 12.1 NW 13 20 1021.1 - 0.0 - - - - - - -
22/10:00am 11.1 NW 13 19 1021.6 - 0.0 - - - - - - -
22/09:30am 10.3 NW 12 17 1021.7 - 0.0 - - - - - - -
22/09:00am 9.3 NW 13 20 1022.1 - 0.0 - - - - - - -
22/08:30am 9.0 NW 13 17 1022.2 - - - - - - - - -
22/08:00am - NW 11 18 1022.2 - - - - - - - - -
22/07:30am - NW 7 12 1022.5 - - - - - - - - -
22/07:00am - NW 9 14 1022.5 - - - - - - - - -
22/06:30am - NW 9 14 1022.2 - - - - - - - - -
22/06:00am - NW 10 14 1022.1 - - - - - - - - -
22/05:30am - NW 9 11 1021.9 - - - - - - - - -
22/05:00am 7.9 NW 7 9 1021.7 - 0.0 - - - - - - -
22/04:30am 7.6 WNW 5 7 1021.8 - 0.0 - - - - - - -
22/04:00am 7.5 WNW 6 9 1021.8 - 0.0 - - - - - - -
22/03:30am 7.7 WNW 7 9 1021.9 - 0.0 - - - - - - -
22/03:00am 8.1 WNW 4 6 1022.1 - 0.0 - - - - - - -
22/02:30am 7.5 WNW 4 6 1022.2 - 0.0 - - - - - - -
22/02:00am 8.1 WNW 4 6 1022.4 - 0.0 - - - - - - -
22/01:30am 8.3 WNW 6 8 1022.6 - 0.0 - - - - - - -
22/01:00am 8.9 WNW 3 5 1022.6 - 0.0 - - - - - - -
22/12:30am 9.1 NW 5 8 1022.8 - 0.0 - - - - - - -
22/12:00am 8.6 NW 7 8 1022.9 - 0.0 - - - - - - -
 
Date/Time
EST
Temp
°C
Wind Pressure Rain since
9am
mm
Weather Cloud Vis
km
Sea
Height
m
Swell
Dir  Spd
kts
Gust
kts
hPa Trend Height
m
Period
s
Dir
21/11:30pm 9.6 WNW 6 7 1023.1 - 0.0 - - - - - - -
21/11:00pm 10.3 WNW 4 7 1023.2 - 0.0 - - - - - - -
21/10:30pm 10.4 WNW 3 4 1022.9 - 0.0 - - - - - - -
21/10:00pm 11.7 NW 5 6 1022.9 - 0.0 - - - - - - -
21/09:30pm 11.8 W 1 2 1022.8 - 0.0 - - - - - - -
21/09:00pm 12.5 W 1 2 1022.8 - 0.0 - - - - - - -
21/08:30pm 12.5 W 2 5 1022.8 - 0.0 - - - - - - -
21/08:00pm 13.4 SW 7 13 1022.6 - 0.0 - - - - - - -
21/07:30pm 14.0 SSW 8 13 1022.2 - 0.0 - - - - - - -
21/07:00pm 14.0 SSW 7 11 1022.2 - 0.0 - - - - - - -
21/06:30pm 13.9 SW 7 11 1022.3 - 0.0 - - - - - - -
21/06:00pm 13.9 SSW 9 12 1022.0 - 0.0 - - - - - - -
21/05:30pm 14.0 SW 9 16 1021.9 - 0.0 - - - - - - -
21/05:00pm 13.9 SW 11 17 1021.3 - 0.0 - - - - - - -
21/04:30pm 13.9 SSW 11 19 1021.1 - 0.0 - - - - - - -
21/04:00pm 13.8 SW 12 19 1021.0 - 0.0 - - - - - - -
21/03:30pm 13.9 SW 14 22 1020.6 - 0.0 - - - - - - -
21/03:00pm 13.6 SSW 15 22 1020.3 - 0.0 - - - - - - -
21/02:30pm 13.5 SW 14 22 1020.3 - 0.0 - - - - - - -
21/02:00pm 13.5 SW 17 26 1020.1 - 0.0 - - - - - - -
21/01:30pm 13.2 SW 16 23 1020.1 - 0.0 - - - - - - -
21/01:00pm 13.4 SSW 16 26 1020.3 - 0.0 - - - - - - -
21/12:43pm 13.2 SW 15 25 1020.3 - 0.0 - - - - - - -
21/12:30pm 13.4 SW 16 25 1020.4 - 0.0 - - - - - - -
21/12:00pm 13.0 SW 17 25 1020.4 - 0.0 - - - - - - -
21/11:53am 13.1 SSW 15 25 1020.5 - 0.0 - - - - - - -
21/11:30am 13.1 SW 15 23 1020.7 - 0.0 - - - - - - -
21/11:00am 12.8 SSW 15 23 1021.0 - 0.0 - - - - - - -
21/10:35am 12.5 SW 15 25 1021.2 - 0.0 - - - - - - -
21/10:30am 12.5 SW 14 22 1021.2 - 0.0 - - - - - - -
21/10:00am 12.4 SW 14 22 1020.9 - 0.0 - - - - - - -
21/09:30am 12.2 SW 12 19 1020.9 - 0.0 - - - - - - -
21/09:00am 11.8 SW 12 18 1020.4 - - - - - - - - -
21/08:30am 11.7 SW 11 18 1020.1 - - - - - - - - -
21/08:00am - SW 10 14 1019.8 - - - - - - - - -
21/07:30am - SW 14 23 1019.1 - - - - - - - - -
21/07:00am - SW 15 24 1018.9 - - - - - - - - -
21/06:30am - SW 11 20 1018.5 - - - - - - - - -
21/06:00am 11.5 SW 14 24 1018.2 - 1.8 - - - - - - -
21/05:30am 11.7 SW 15 22 1017.7 - 1.8 - - - - - - -
21/05:00am 11.2 SW 12 20 1017.3 - 1.8 - - - - - - -
21/04:30am 11.2 SW 14 24 1017.2 - 1.8 - - - - - - -
21/04:00am 10.9 SW 13 20 1017.3 - 1.8 - - - - - - -
21/03:30am 10.7 SW 13 20 1017.3 - 1.8 - - - - - - -
21/03:00am 10.6 WSW 9 13 1017.2 - 1.8 - - - - - - -
21/02:30am 10.4 WSW 9 14 1017.0 - 1.8 - - - - - - -
21/02:00am 10.0 WSW 9 13 1017.0 - 1.8 - - - - - - -
21/01:30am 9.3 WSW 8 13 1016.8 - 1.8 - - - - - - -
21/01:00am 9.4 WSW 8 14 1016.6 - 1.8 - - - - - - -
21/12:30am 9.2 WSW 6 13 1016.5 - 1.8 - - - - - - -
21/12:00am 9.2 WSW 6 11 1016.6 - 1.8 - - - - - - -
 
Date/Time
EST
Temp
°C
Wind Pressure Rain since
9am
mm
Weather Cloud Vis
km
Sea
Height
m
Swell
Dir  Spd
kts
Gust
kts
hPa Trend Height
m
Period
s
Dir
20/11:30pm 9.2 W 3 7 1016.8 - 1.8 - - - - - - -
20/11:00pm 9.7 W 4 9 1016.7 - 1.8 - - - - - - -
20/10:30pm 9.8 WSW 6 10 1016.5 - 1.8 - - - - - - -
20/10:00pm 10.2 WSW 7 11 1016.4 - 1.8 - - - - - - -
20/09:30pm 10.5 WSW 7 12 1016.1 - 1.8 - - - - - - -
20/09:00pm 10.8 WSW 3 8 1015.9 - 1.8 - - - - - - -
20/08:30pm 10.4 W 4 10 1015.6 - 1.8 - - - - - - -
20/08:00pm 10.5 W 5 10 1015.1 - 1.8 - - - - - - -
20/07:30pm 10.7 W 3 7 1014.9 - 1.8 - - - - - - -
20/07:00pm 10.2 W 3 9 1014.6 - 1.8 - - - - - - -
20/06:30pm 11.1 WSW 5 9 1014.1 - 1.0 - - - - - - -
20/06:00pm 10.4 W 3 9 1013.6 - 1.0 Recent precip. - - - - - -
20/05:30pm 10.7 SSW 13 24 1012.9 - 0.2 - - - - - - -
20/05:00pm 12.4 W 5 15 1012.2 - 0.0 - - - - - - -
20/04:30pm 12.6 W 6 11 1011.5 - 0.0 - - - - - - -
20/04:00pm 13.1 W 5 10 1011.5 - 0.0 - - - - - - -
20/03:30pm 13.3 W 7 12 1011.3 - 0.0 - - - - - - -
20/03:00pm 13.1 WNW 8 14 1010.8 - 0.0 - - - - - - -
20/02:30pm 13.2 WNW 9 18 1011.0 - 0.0 - - - - - - -
20/02:00pm 13.3 W 7 14 1011.0 - 0.0 - - - - - - -
20/01:30pm 13.3 WNW 10 19 1010.6 - 0.0 - - - - - - -
20/01:00pm 13.7 WNW 9 21 1010.9 - 0.0 - - - - - - -
20/12:30pm 13.4 WNW 7 15 1011.0 - 0.0 - - - - - - -
20/12:00pm 13.4 W 6 11 1011.2 - 0.0 - - - - - - -
20/11:30am 13.2 W 5 10 1011.6 - 0.0 - - - - - - -
20/11:00am 12.9 WNW 7 12 1011.9 - 0.0 - - - - - - -
20/10:30am 12.5 W 6 12 1012.6 - 0.0 - - - - - - -
20/10:00am 11.7 W 6 11 1012.7 - 0.0 - - - - - - -
20/09:30am 11.2 W 5 9 1012.4 - 0.0 - - - - - - -
20/09:00am 10.8 W 5 9 1012.2 - 0.0 - - - - - - -

Other Formats:

Comma delimited format used in spreadsheet applications
http://www.bom.gov.au/fwo/IDN60701/IDN60701.95940.axf

JavaScript Object Notation format (JSON) in row-major order
http://www.bom.gov.au/fwo/IDN60701/IDN60701.95940.json